Reading, KS (66868)

12:32 AM CST on March 05, 2015 (GMT -0600)
East Emporia Kansas | Change Station
CLOSE
Current Station
Personal Weather Station
Location: Emporia, KS
Elevation: 1106 ft
Nearby Weather Stations

Elev 1106 ft 38.39 °N, 96.12 °W | Updated 9 minutes ago

Clear
Clear
17.4 °F
Feels Like 17 °F
N
1.7
Wind Variable Wind from WSW

Today
High -- | Low -- °F
--% Chance of Precip.
Yesterday
High -- | Low -- °F
Precip. -- in
6:50 AM 6:21 PM
Full, 100% visible
Pressure 30.47 in
Visibility 10.0 miles
Clouds Clear
Windchill 17 °F
Dew Point 8 °F
Humidity 65%
Rainfall in
Snow Depth Not available.
UV 0 out of 12
Pollen .20 out of 12
Air Quality Not available.
Flu Activity Not available.
METAR KEMP 050553Z AUTO 32004KT 10SM CLR M07/M13 A3041 RMK AO2 SLP318 T10721133 11022 21072 410111078 51011

More Conditions Fewer Conditions

Pressure 30.47 in
Visibility 10.0 miles
Clouds Clear
Windchill 17 °F
Dew Point 8 °F
Humidity 65%
Rainfall in
Snow Depth Not available.
UV 0 out of 12
Pollen .20 out of 12
Air Quality Not available.
Flu Activity Not available.
METAR KEMP 050553Z AUTO 32004KT 10SM CLR M07/M13 A3041 RMK AO2 SLP318 T10721133 11022 21072 410111078 51011

More Conditions Fewer Conditions

10-Day Weather Forecast

Almanac

Astronomy

Mar. 05, 2015 Rise Set
Actual Time
Civil Twilight
Nautical Twilight
Astronomical Twilight
Moon
Length of Visible Light
Length of Day
Tomorrow will be .
, % of the Moon is Illuminated

Today's Extremes

State Highs State Lows

Community

WunderPhotos

Upload Photos

1,802,689 photos uploaded!

WunderBlogs® & News

Nearby

Air Quality

  Air Quality AQ Index Pollutant
Not available.

Snow Depth

Station Depth Elevation

Earthquake Activity

City Distance Mag. Time & Date
Minimum magnitude displayed is 2.5.

Coastal Water Temperatures

Place Temperature

Nearby Weather Stations